Time;durP1;ratioP1;P1;durP2;ratioP2;P2;SDS_P1;SDS_P2;PMS_P1;PMS_P2;Temp;Humidity;BMP_temperature;BMP_pressure;BME280_temperature;BME280_humidity;BME280_pressure;Samples;Min_cycle;Max_cycle;Signal;HPM_P1;HPM_P2
2023/10/26 00:02:15;;;;;;;839.65;755.35;;;;;;;;;;4996345;28;20030;-92
2023/10/26 00:04:41;;;;;;;864.50;777.85;;;;;;;;;;4995632;28;20030;-91
2023/10/26 00:07:10;;;;;;;895.25;803.20;;;;;;;;;;4995958;28;20030;-93
2023/10/26 00:10:03;;;;;;;882.80;790.55;;;;;;;;;;4995386;28;20108;-90
2023/10/26 00:12:41;;;;;;;850.40;766.80;;;;;;;;;;4995558;28;20364;-90
2023/10/26 00:15:08;;;;;;;869.25;784.33;;;;;;;;;;4996038;28;20034;-91
2023/10/26 00:17:40;;;;;;;838.22;754.45;;;;;;;;;;4995251;28;20046;-92
2023/10/26 00:26:23;;;;;;;893.42;801.70;;;;;;;;;;4938749;28;20499;-92
2023/10/26 00:28:52;;;;;;;851.15;763.95;;;;;;;;;;4995691;28;20187;-94
2023/10/26 00:31:21;;;;;;;872.33;783.47;;;;;;;;;;4996253;28;20164;-92
2023/10/26 00:33:47;;;;;;;845.50;760.72;;;;;;;;;;4995162;28;20084;-92
2023/10/26 00:36:13;;;;;;;839.53;756.92;;;;;;;;;;4997018;28;20108;-92
2023/10/26 00:38:42;;;;;;;865.80;779.10;;;;;;;;;;5010153;28;20031;-92
2023/10/26 00:41:14;;;;;;;862.30;774.65;;;;;;;;;;5003888;28;20476;-92
2023/10/26 00:49:15;;;;;;;867.03;777.30;;;;;;;;;;5330646;22;20049;-92
2023/10/26 00:52:03;;;;;;;852.80;767.97;;;;;;;;;;5005513;28;20021;-92
2023/10/26 00:54:33;;;;;;;843.85;760.03;;;;;;;;;;5007791;28;20022;-93
2023/10/26 00:56:59;;;;;;;840.05;757.85;;;;;;;;;;5019974;28;20034;-93
2023/10/26 00:59:39;;;;;;;840.75;761.50;;;;;;;;;;5042333;23;20021;-92
2023/10/26 01:02:08;;;;;;;847.50;762.78;;;;;;;;;;4999913;28;20036;-91
2023/10/26 01:07:07;;;;;;;838.80;757.97;;;;;;;;;;4995826;28;20507;-93
2023/10/26 01:09:33;;;;;;;896.00;805.72;;;;;;;;;;5054361;23;20149;-94
2023/10/26 01:12:24;;;;;;;864.92;779.88;;;;;;;;;;5001047;28;20114;-92
2023/10/26 01:15:00;;;;;;;897.53;802.47;;;;;;;;;;5076144;22;20037;-92
2023/10/26 01:17:32;;;;;;;835.83;754.67;;;;;;;;;;5018775;28;20036;-92
2023/10/26 01:20:07;;;;;;;861.93;776.73;;;;;;;;;;5150423;22;20057;-92
2023/10/26 01:22:45;;;;;;;858.70;776.17;;;;;;;;;;4996515;28;20281;-94
2023/10/26 01:27:44;;;;;;;868.83;783.80;;;;;;;;;;5015324;28;20592;-91
2023/10/26 01:33:24;;;;;;;834.30;751.53;;;;;;;;;;5005370;28;20125;-92
2023/10/26 01:35:53;;;;;;;846.35;762.92;;;;;;;;;;5030488;28;20112;-93
2023/10/26 01:38:22;;;;;;;827.00;748.10;;;;;;;;;;5030369;28;20018;-92
2023/10/26 01:40:49;;;;;;;865.17;779.60;;;;;;;;;;5030229;28;20026;-93
2023/10/26 01:43:18;;;;;;;845.45;762.75;;;;;;;;;;5029695;28;20034;-93
2023/10/26 01:45:50;;;;;;;852.30;768.45;;;;;;;;;;5030496;28;20393;-93
2023/10/26 01:48:19;;;;;;;855.95;770.20;;;;;;;;;;4997990;28;20124;-92
2023/10/26 01:51:03;;;;;;;896.03;805.67;;;;;;;;;;4997214;28;20028;-92
2023/10/26 01:53:36;;;;;;;876.20;789.42;;;;;;;;;;4997926;28;20049;-92
2023/10/26 01:56:05;;;;;;;869.60;783.85;;;;;;;;;;4998383;28;20459;-92
2023/10/26 01:58:35;;;;;;;836.25;757.40;;;;;;;;;;4997629;28;20036;-92
2023/10/26 02:01:08;;;;;;;878.72;792.92;;;;;;;;;;5030371;28;20030;-93
2023/10/26 02:03:37;;;;;;;846.53;765.15;;;;;;;;;;5030307;28;20029;-92
2023/10/26 02:06:04;;;;;;;825.85;745.42;;;;;;;;;;5029943;28;20509;-92
2023/10/26 02:08:43;;;;;;;867.58;783.97;;;;;;;;;;5030068;28;20120;-93
2023/10/26 02:11:12;;;;;;;839.88;759.30;;;;;;;;;;5027151;28;20037;-94
2023/10/26 02:13:40;;;;;;;844.92;764.63;;;;;;;;;;5030110;28;20025;-93
2023/10/26 02:16:09;;;;;;;824.35;744.80;;;;;;;;;;5030320;28;20034;-92
2023/10/26 02:18:44;;;;;;;888.63;801.30;;;;;;;;;;4993545;28;20484;-93
2023/10/26 02:21:13;;;;;;;835.42;753.53;;;;;;;;;;4979695;28;20062;-92
2023/10/26 02:23:49;;;;;;;833.20;753.78;;;;;;;;;;4978999;28;20058;-93
2023/10/26 02:26:21;;;;;;;845.85;763.60;;;;;;;;;;4978424;28;20034;-93
2023/10/26 02:28:50;;;;;;;830.20;748.83;;;;;;;;;;5017527;23;20044;-92
2023/10/26 02:31:39;;;;;;;854.00;766.90;;;;;;;;;;5018928;28;20038;-93
2023/10/26 02:34:15;;;;;;;821.08;739.40;;;;;;;;;;5018791;28;20089;-92
2023/10/26 02:36:41;;;;;;;859.53;771.92;;;;;;;;;;5020689;28;20030;-92
2023/10/26 02:39:07;;;;;;;867.65;780.53;;;;;;;;;;5009475;28;20117;-91
2023/10/26 02:41:39;;;;;;;839.08;758.50;;;;;;;;;;5019324;28;20021;-92
2023/10/26 02:44:05;;;;;;;840.22;757.05;;;;;;;;;;5070459;23;20062;-91
2023/10/26 02:46:34;;;;;;;853.08;766.70;;;;;;;;;;5000677;28;20061;-93
2023/10/26 02:49:06;;;;;;;893.45;799.08;;;;;;;;;;4984434;28;20019;-91
2023/10/26 02:51:36;;;;;;;863.92;779.38;;;;;;;;;;4982662;28;20475;-93
2023/10/26 02:54:08;;;;;;;826.10;745.15;;;;;;;;;;4999723;28;20038;-92
2023/10/26 02:59:40;;;;;;;834.35;751.00;;;;;;;;;;5027913;22;20113;-92
2023/10/26 03:02:09;;;;;;;864.30;776.80;;;;;;;;;;5001270;28;20030;-93
2023/10/26 03:04:37;;;;;;;853.15;765.97;;;;;;;;;;5002435;28;20080;-90
2023/10/26 03:07:03;;;;;;;856.50;771.38;;;;;;;;;;5002069;28;20117;-92
2023/10/26 03:12:35;;;;;;;864.72;780.55;;;;;;;;;;5094061;22;20053;-91
2023/10/26 03:15:04;;;;;;;853.50;767.05;;;;;;;;;;5097322;23;20057;-92
2023/10/26 03:17:36;;;;;;;834.28;748.80;;;;;;;;;;5039647;28;20029;-92
2023/10/26 03:20:09;;;;;;;830.90;748.72;;;;;;;;;;5039569;28;20021;-92
2023/10/26 03:22:35;;;;;;;831.22;748.25;;;;;;;;;;5038657;28;20068;-91
2023/10/26 03:25:21;;;;;;;857.40;773.47;;;;;;;;;;5027454;28;20064;-92
2023/10/26 03:27:53;;;;;;;877.83;790.83;;;;;;;;;;5026692;28;20393;-93
2023/10/26 03:30:23;;;;;;;809.60;730.25;;;;;;;;;;5197869;23;20058;-94
2023/10/26 03:33:03;;;;;;;890.63;802.88;;;;;;;;;;5007249;28;20038;-91
2023/10/26 03:35:29;;;;;;;880.15;791.50;;;;;;;;;;5000201;28;20026;-92
2023/10/26 03:37:59;;;;;;;870.00;788.45;;;;;;;;;;5000188;28;20404;-92
2023/10/26 03:40:28;;;;;;;874.70;789.50;;;;;;;;;;5000516;28;20061;-92
2023/10/26 03:43:03;;;;;;;861.60;774.90;;;;;;;;;;4996223;28;20034;-93
2023/10/26 03:51:18;;;;;;;873.75;787.42;;;;;;;;;;3742498;23;21495;31
2023/10/26 03:53:53;;;;;;;885.50;795.15;;;;;;;;;;4951051;29;20079;-94
2023/10/26 03:56:35;;;;;;;877.50;791.88;;;;;;;;;;4933232;29;20040;-90
2023/10/26 04:01:46;;;;;;;854.72;771.17;;;;;;;;;;5189047;23;20039;-91
2023/10/26 04:04:12;;;;;;;899.33;809.53;;;;;;;;;;5008858;28;20034;-92
2023/10/26 04:06:38;;;;;;;892.67;803.67;;;;;;;;;;4981046;28;20116;-91
2023/10/26 04:09:08;;;;;;;884.63;797.47;;;;;;;;;;4967833;28;20089;-91
2023/10/26 04:11:35;;;;;;;889.58;800.85;;;;;;;;;;4975125;28;20073;-91
2023/10/26 04:14:07;;;;;;;864.65;780.63;;;;;;;;;;4962969;28;20077;-90
2023/10/26 04:20:13;;;;;;;920.75;828.33;;;;;;;;;;4988742;28;20073;-90
2023/10/26 04:22:40;;;;;;;924.80;832.83;;;;;;;;;;4913122;29;20036;-91
2023/10/26 04:25:09;;;;;;;909.55;822.35;;;;;;;;;;4907185;29;20084;-91
2023/10/26 04:27:47;;;;;;;918.53;827.92;;;;;;;;;;4884181;29;20037;-91
2023/10/26 04:30:22;;;;;;;928.03;837.88;;;;;;;;;;4885173;29;20092;-91
2023/10/26 04:32:49;;;;;;;935.50;843.53;;;;;;;;;;4884328;29;20064;-92
2023/10/26 04:35:21;;;;;;;893.35;807.30;;;;;;;;;;4845399;29;20045;-91
2023/10/26 04:37:50;;;;;;;920.65;827.47;;;;;;;;;;4844589;29;20061;-92
2023/10/26 04:40:27;;;;;;;928.58;837.30;;;;;;;;;;4903973;29;20103;-92
2023/10/26 04:42:54;;;;;;;915.95;825.78;;;;;;;;;;4908779;29;20516;-91
2023/10/26 04:45:34;;;;;;;955.45;854.50;;;;;;;;;;4926614;29;20130;-91
2023/10/26 04:48:07;;;;;;;939.20;844.92;;;;;;;;;;4990406;23;20048;-93
2023/10/26 04:56:19;;;;;;;918.00;826.83;;;;;;;;;;4982517;23;20047;-91
2023/10/26 05:01:37;;;;;;;1029.07;879.72;;;;;;;;;;5042753;23;20095;-92
2023/10/26 05:04:03;;;;;;;941.65;849.92;;;;;;;;;;4965874;28;20054;-92
2023/10/26 05:09:17;;;;;;;978.67;872.33;;;;;;;;;;5167920;23;20120;-92
2023/10/26 05:14:39;;;;;;;938.92;843.58;;;;;;;;;;5489373;23;20040;-94
2023/10/26 05:19:41;;;;;;;901.35;815.83;;;;;;;;;;5019643;23;20569;-90
2023/10/26 05:22:07;;;;;;;919.35;827.95;;;;;;;;;;4978828;28;20115;-91
2023/10/26 05:24:46;;;;;;;938.45;844.55;;;;;;;;;;4954590;28;20043;-91
2023/10/26 05:27:15;;;;;;;934.00;840.15;;;;;;;;;;4928214;29;20061;-91
2023/10/26 05:29:45;;;;;;;940.45;845.80;;;;;;;;;;4922556;29;20118;-95
2023/10/26 05:32:14;;;;;;;903.83;816.03;;;;;;;;;;4940257;29;20424;-93
2023/10/26 05:34:43;;;;;;;907.58;816.80;;;;;;;;;;4932905;29;20040;-91
2023/10/26 05:37:09;;;;;;;922.53;831.58;;;;;;;;;;4919235;29;20401;-90
2023/10/26 05:39:36;;;;;;;956.60;853.28;;;;;;;;;;4920380;29;20098;-91
2023/10/26 05:42:24;;;;;;;928.42;835.03;;;;;;;;;;4919701;29;20064;-92
2023/10/26 05:44:59;;;;;;;906.75;818.13;;;;;;;;;;4919335;29;20047;-90
2023/10/26 05:47:28;;;;;;;913.55;822.85;;;;;;;;;;4919288;29;20031;-91
2023/10/26 05:49:54;;;;;;;925.63;832.30;;;;;;;;;;4919350;29;20493;-91
2023/10/26 05:52:23;;;;;;;938.67;845.08;;;;;;;;;;4936238;29;20134;-91
2023/10/26 05:54:49;;;;;;;914.90;824.25;;;;;;;;;;4946566;28;20042;-91
2023/10/26 05:57:15;;;;;;;886.38;800.08;;;;;;;;;;4977446;28;20022;-91
2023/10/26 05:59:44;;;;;;;905.05;815.13;;;;;;;;;;4966238;28;20031;-91
2023/10/26 06:02:16;;;;;;;917.83;824.53;;;;;;;;;;4960829;28;20027;-91
2023/10/26 06:04:45;;;;;;;883.55;796.97;;;;;;;;;;4969916;28;20112;-91
2023/10/26 06:07:11;;;;;;;917.88;825.83;;;;;;;;;;4962317;28;20027;-91
2023/10/26 06:09:40;;;;;;;913.63;820.45;;;;;;;;;;4962876;28;20030;-90
2023/10/26 06:12:07;;;;;;;914.65;820.75;;;;;;;;;;4962183;28;20031;-90
2023/10/26 06:14:37;;;;;;;912.25;819.00;;;;;;;;;;4961812;28;20037;-92
2023/10/26 06:17:09;;;;;;;913.53;819.90;;;;;;;;;;4962006;28;20054;-91
2023/10/26 06:19:39;;;;;;;904.15;811.50;;;;;;;;;;4962666;28;20043;-91
2023/10/26 06:22:14;;;;;;;902.75;811.13;;;;;;;;;;4962291;28;20484;-92
2023/10/26 06:24:41;;;;;;;919.03;824.95;;;;;;;;;;4957225;28;20035;-91
2023/10/26 06:27:11;;;;;;;888.03;798.03;;;;;;;;;;4960904;28;20126;-91
2023/10/26 06:29:46;;;;;;;893.92;801.05;;;;;;;;;;4960829;28;20071;-91
2023/10/26 06:32:21;;;;;;;901.65;809.05;;;;;;;;;;4962299;28;20097;-90
2023/10/26 06:34:47;;;;;;;893.80;798.88;;;;;;;;;;4980718;28;20050;-91
2023/10/26 06:37:14;;;;;;;881.67;790.60;;;;;;;;;;5009280;28;20113;-91
2023/10/26 06:43:02;;;;;;;904.75;807.22;;;;;;;;;;4919660;29;20032;-91
2023/10/26 06:45:37;;;;;;;871.75;778.40;;;;;;;;;;4919717;29;20552;-91
2023/10/26 06:48:09;;;;;;;891.05;793.45;;;;;;;;;;4886422;29;20029;-92
2023/10/26 06:50:35;;;;;;;908.60;809.97;;;;;;;;;;4904222;29;20051;-91
2023/10/26 06:53:10;;;;;;;866.92;773.42;;;;;;;;;;4974320;28;20022;-92
2023/10/26 06:55:42;;;;;;;817.25;737.00;;;;;;;;;;4986107;28;20113;-92
2023/10/26 06:58:12;;;;;;;866.08;775.67;;;;;;;;;;4992677;28;20030;-91
2023/10/26 07:00:40;;;;;;;833.28;750.08;;;;;;;;;;4976837;28;20045;-91
2023/10/26 07:03:07;;;;;;;782.30;706.30;;;;;;;;;;4980522;28;20486;-92
2023/10/26 07:05:36;;;;;;;782.53;708.58;;;;;;;;;;4980302;28;20042;-90
2023/10/26 07:11:34;;;;;;;682.95;621.60;;;;;;;;;;4901632;29;20401;-92
2023/10/26 07:14:00;;;;;;;793.78;718.10;;;;;;;;;;4900836;29;20032;-92
2023/10/26 07:16:35;;;;;;;741.53;672.70;;;;;;;;;;4899862;29;20482;-92
2023/10/26 07:19:01;;;;;;;732.92;665.75;;;;;;;;;;4899627;29;20145;-93
2023/10/26 07:21:45;;;;;;;650.58;589.75;;;;;;;;;;4881047;29;20410;-93
2023/10/26 07:24:58;;;;;;;776.08;702.15;;;;;;;;;;4866354;29;20040;-92
2023/10/26 07:27:27;;;;;;;777.70;704.83;;;;;;;;;;4836209;29;20061;-95
2023/10/26 07:29:53;;;;;;;776.17;702.15;;;;;;;;;;4878135;29;20036;-93
2023/10/26 07:32:22;;;;;;;726.42;660.72;;;;;;;;;;4880949;29;20042;-92
2023/10/26 07:34:52;;;;;;;751.40;680.50;;;;;;;;;;4936068;29;20072;-91
2023/10/26 07:40:30;;;;;;;695.97;632.90;;;;;;;;;;4938018;29;20132;-92
2023/10/26 07:42:59;;;;;;;694.15;631.85;;;;;;;;;;4916886;29;20299;-92
2023/10/26 07:45:27;;;;;;;741.78;673.28;;;;;;;;;;4921126;29;20036;-92
2023/10/26 07:47:57;;;;;;;691.33;629.88;;;;;;;;;;4921438;29;20035;-91
2023/10/26 07:50:36;;;;;;;721.28;656.47;;;;;;;;;;4954787;28;20069;-92
2023/10/26 07:53:08;;;;;;;687.35;626.83;;;;;;;;;;4955892;28;20400;-93
2023/10/26 07:55:37;;;;;;;705.55;642.92;;;;;;;;;;4959757;28;20058;-92
2023/10/26 07:58:07;;;;;;;703.92;640.53;;;;;;;;;;4959777;28;20039;-92
2023/10/26 08:00:35;;;;;;;725.72;662.40;;;;;;;;;;4969826;28;20030;-92
2023/10/26 08:03:05;;;;;;;706.85;645.03;;;;;;;;;;4980584;28;20038;-94
2023/10/26 08:05:38;;;;;;;750.97;688.15;;;;;;;;;;4978878;28;20052;-93
2023/10/26 08:08:16;;;;;;;660.88;605.90;;;;;;;;;;4979182;28;20026;-93
2023/10/26 08:11:23;;;;;;;688.58;633.80;;;;;;;;;;4958422;29;20027;-91
2023/10/26 08:13:55;;;;;;;624.95;574.78;;;;;;;;;;4944202;29;20031;-90
2023/10/26 08:16:24;;;;;;;667.42;616.15;;;;;;;;;;4940065;29;20031;-91
2023/10/26 08:18:53;;;;;;;157.65;146.73;;;;;;;;;;4939558;29;20101;-90
2023/10/26 08:21:31;;;;;;;165.88;155.45;;;;;;;;;;4941628;29;20034;-93
2023/10/26 08:24:00;;;;;;;116.53;109.82;;;;;;;;;;4922011;29;20090;-93
2023/10/26 08:26:30;;;;;;;158.25;148.05;;;;;;;;;;4932848;29;20051;-93
2023/10/26 08:29:24;;;;;;;164.68;153.60;;;;;;;;;;4940359;29;20032;-93
2023/10/26 08:31:53;;;;;;;127.90;119.70;;;;;;;;;;4939702;29;20090;-92
2023/10/26 08:34:31;;;;;;;154.80;144.68;;;;;;;;;;4939618;29;20539;-93
2023/10/26 08:37:00;;;;;;;149.98;140.25;;;;;;;;;;4939664;29;20062;-92
2023/10/26 08:39:30;;;;;;;307.42;285.30;;;;;;;;;;4939643;29;20179;-93
2023/10/26 08:42:01;;;;;;;287.40;267.35;;;;;;;;;;4957417;28;20096;-93
2023/10/26 08:44:30;;;;;;;289.63;270.27;;;;;;;;;;4980644;28;20041;-92
2023/10/26 08:47:02;;;;;;;204.07;189.32;;;;;;;;;;4974057;28;20073;-93
2023/10/26 08:49:29;;;;;;;214.55;197.45;;;;;;;;;;4968832;28;20074;-92
2023/10/26 08:51:55;;;;;;;237.20;219.75;;;;;;;;;;4962490;28;20027;-92
2023/10/26 08:54:29;;;;;;;287.45;267.17;;;;;;;;;;4976003;28;20037;-91
2023/10/26 08:59:52;;;;;;;209.32;194.40;;;;;;;;;;4976994;28;20174;-93
2023/10/26 09:08:30;;;;;;;;;;;;;;;;;;4969603;28;20030;-91
2023/10/26 09:11:01;;;;;;;262.83;242.32;;;;;;;;;;4968581;28;19962;-91
2023/10/26 09:13:34;;;;;;;233.80;217.48;;;;;;;;;;4966322;28;20027;-89
2023/10/26 09:16:04;;;;;;;262.52;243.70;;;;;;;;;;4986304;28;20156;-92
2023/10/26 09:18:31;;;;;;;254.55;235.60;;;;;;;;;;4960871;28;20062;-92
2023/10/26 09:21:04;;;;;;;441.55;407.30;;;;;;;;;;4944842;28;20043;-92
2023/10/26 09:23:34;;;;;;;390.00;359.50;;;;;;;;;;4978562;28;20098;-92
2023/10/26 09:26:04;;;;;;;375.73;347.45;;;;;;;;;;4960227;28;20492;-92
2023/10/26 09:28:47;;;;;;;299.70;276.08;;;;;;;;;;4958886;28;20113;-92
2023/10/26 09:31:19;;;;;;;385.70;351.25;;;;;;;;;;4959147;28;20027;-91
2023/10/26 09:33:52;;;;;;;591.08;541.50;;;;;;;;;;4958899;28;20031;-92
2023/10/26 09:36:22;;;;;;;560.17;512.90;;;;;;;;;;4958507;28;20042;-92
2023/10/26 09:38:55;;;;;;;317.42;284.88;;;;;;;;;;4958885;28;20031;-92
2023/10/26 09:41:21;;;;;;;238.05;219.45;;;;;;;;;;4969544;28;20037;-91
2023/10/26 09:43:50;;;;;;;278.13;256.17;;;;;;;;;;4977982;28;20080;-92
2023/10/26 09:46:17;;;;;;;186.48;173.15;;;;;;;;;;4978411;28;20045;-92
2023/10/26 09:48:46;;;;;;;283.80;257.98;;;;;;;;;;4978648;28;20066;-92
2023/10/26 09:51:15;;;;;;;320.48;292.48;;;;;;;;;;4999173;28;20038;-91
2023/10/26 09:53:41;;;;;;;270.58;250.18;;;;;;;;;;4983853;28;20054;-90
2023/10/26 09:56:16;;;;;;;108.10;101.13;;;;;;;;;;4980982;28;20035;-92
2023/10/26 09:58:43;;;;;;;251.98;234.43;;;;;;;;;;4980502;28;20026;-91
2023/10/26 10:01:27;;;;;;;266.85;245.82;;;;;;;;;;4979007;28;20030;-92
2023/10/26 10:04:13;;;;;;;339.33;309.80;;;;;;;;;;4977946;28;20030;-90
2023/10/26 10:06:58;;;;;;;566.40;518.70;;;;;;;;;;4975830;28;20169;-91
2023/10/26 10:09:34;;;;;;;215.07;198.98;;;;;;;;;;4970612;28;20026;-91
2023/10/26 10:12:07;;;;;;;386.05;354.65;;;;;;;;;;4958305;28;20464;-92
2023/10/26 10:15:01;;;;;;;161.02;147.93;;;;;;;;;;4958084;28;20023;-93
2023/10/26 10:17:30;;;;;;;;;;;;;;;;;;4959167;28;20156;-91
2023/10/26 10:20:23;;;;;;;208.27;192.40;;;;;;;;;;4957821;28;19973;-93
2023/10/26 10:22:58;;;;;;;410.17;377.63;;;;;;;;;;4958172;28;20431;-92
2023/10/26 10:25:44;;;;;;;500.83;458.10;;;;;;;;;;4958302;28;20140;-92
2023/10/26 10:28:37;;;;;;;597.92;547.03;;;;;;;;;;4957138;28;20062;-90
2023/10/26 10:31:06;;;;;;;631.08;575.35;;;;;;;;;;4963695;28;20039;-91
2023/10/26 10:36:57;;;;;;;594.58;544.80;;;;;;;;;;4974526;28;20121;-88
2023/10/26 10:39:39;;;;;;;560.78;513.75;;;;;;;;;;4958212;28;20027;-91
2023/10/26 10:42:14;;;;;;;594.45;542.95;;;;;;;;;;4974558;28;20026;-90
2023/10/26 10:44:46;;;;;;;596.10;546.30;;;;;;;;;;4973235;28;20030;-93
2023/10/26 10:47:18;;;;;;;712.08;649.38;;;;;;;;;;4962307;28;20035;-90
2023/10/26 10:49:47;;;;;;;732.35;668.47;;;;;;;;;;4974530;28;20168;-90
2023/10/26 10:52:14;;;;;;;597.03;546.72;;;;;;;;;;4980984;28;20088;-92
2023/10/26 10:54:54;;;;;;;618.20;568.05;;;;;;;;;;4978380;28;20038;-90
2023/10/26 10:57:20;;;;;;;595.20;546.00;;;;;;;;;;4975171;28;20039;-92
2023/10/26 11:00:01;;;;;;;135.00;126.07;;;;;;;;;;4946886;29;20032;-92
2023/10/26 11:02:42;;;;;;;622.25;571.25;;;;;;;;;;4976137;28;20126;-96
2023/10/26 11:05:23;;;;;;;537.72;494.30;;;;;;;;;;4950562;28;20035;-92
2023/10/26 11:07:56;;;;;;;622.50;571.03;;;;;;;;;;4942271;29;20027;-91
2023/10/26 11:10:25;;;;;;;832.60;748.15;;;;;;;;;;4942267;29;20027;-89
2023/10/26 11:12:54;;;;;;;832.30;757.88;;;;;;;;;;4942887;29;20404;-92
2023/10/26 11:15:23;;;;;;;859.10;780.22;;;;;;;;;;4970430;28;20027;-92
2023/10/26 11:21:15;;;;;;;888.38;802.13;;;;;;;;;;4979221;28;20093;-91
2023/10/26 11:23:41;;;;;;;878.08;792.88;;;;;;;;;;4962033;28;20113;-92
2023/10/26 11:26:43;;;;;;;916.78;826.92;;;;;;;;;;4960995;28;20120;-93
2023/10/26 11:29:19;;;;;;;888.38;802.42;;;;;;;;;;4940376;28;20535;-91
2023/10/26 11:31:52;;;;;;;922.35;827.08;;;;;;;;;;4941093;29;20144;-92
2023/10/26 11:34:24;;;;;;;938.60;839.90;;;;;;;;;;4916051;29;20100;-94
2023/10/26 11:36:57;;;;;;;935.72;839.60;;;;;;;;;;4888964;29;20406;-93
2023/10/26 11:39:24;;;;;;;834.70;760.30;;;;;;;;;;4903619;29;20115;-93
2023/10/26 11:41:59;;;;;;;834.47;755.70;;;;;;;;;;4885401;29;20419;-93
2023/10/26 11:44:33;;;;;;;861.83;781.53;;;;;;;;;;4881261;29;20040;-94
2023/10/26 11:47:06;;;;;;;839.15;761.13;;;;;;;;;;4882112;29;20076;-93
2023/10/26 11:49:46;;;;;;;878.08;792.80;;;;;;;;;;4882388;29;20057;-94
2023/10/26 11:52:16;;;;;;;889.67;799.80;;;;;;;;;;4881120;29;20033;-94
2023/10/26 11:54:59;;;;;;;900.88;810.58;;;;;;;;;;4881797;29;20052;-93
2023/10/26 11:57:25;;;;;;;865.22;784.75;;;;;;;;;;4882148;29;20052;-93
2023/10/26 12:00:03;;;;;;;864.92;782.08;;;;;;;;;;4900124;29;20151;-93
2023/10/26 12:02:32;;;;;;;858.97;776.92;;;;;;;;;;4869303;29;20045;-93
2023/10/26 12:05:04;;;;;;;820.10;744.42;;;;;;;;;;4883537;29;20048;-93
2023/10/26 12:07:37;;;;;;;818.00;743.15;;;;;;;;;;4881567;29;20049;-93
2023/10/26 12:12:50;;;;;;;832.40;754.40;;;;;;;;;;4894753;29;19918;-93
2023/10/26 12:15:23;;;;;;;774.90;704.60;;;;;;;;;;4939091;29;20040;-93
2023/10/26 12:18:02;;;;;;;787.65;718.53;;;;;;;;;;4927822;29;20044;-92
2023/10/26 12:20:34;;;;;;;890.28;804.75;;;;;;;;;;4929553;29;20056;-93
2023/10/26 12:23:03;;;;;;;828.42;757.15;;;;;;;;;;4926316;29;20132;-93
2023/10/26 12:25:40;;;;;;;894.35;806.78;;;;;;;;;;4923118;29;20044;-91
2023/10/26 12:28:14;;;;;;;841.58;764.63;;;;;;;;;;4924467;29;20048;-94
2023/10/26 12:30:59;;;;;;;852.60;771.60;;;;;;;;;;4959607;28;20125;-92
2023/10/26 12:33:31;;;;;;;924.03;824.08;;;;;;;;;;4963689;28;20030;-93
2023/10/26 12:36:20;;;;;;;852.75;770.60;;;;;;;;;;4963633;28;20049;-93
2023/10/26 12:38:52;;;;;;;811.28;739.58;;;;;;;;;;4951937;28;20031;-94
2023/10/26 12:44:16;;;;;;;877.70;792.38;;;;;;;;;;4920147;29;20024;-93
2023/10/26 12:46:49;;;;;;;839.70;762.40;;;;;;;;;;4901683;29;20052;-91
2023/10/26 12:55:40;;;;;;;858.17;775.28;;;;;;;;;;4993960;28;20037;-94
2023/10/26 12:58:15;;;;;;;881.30;794.70;;;;;;;;;;4962285;28;20575;-93
2023/10/26 13:00:48;;;;;;;925.50;833.55;;;;;;;;;;4964868;28;20518;-95
2023/10/26 13:03:36;;;;;;;811.55;739.33;;;;;;;;;;4979256;28;20035;-96
2023/10/26 13:06:02;;;;;;;824.22;748.88;;;;;;;;;;4960086;28;20151;-94
2023/10/26 13:08:41;;;;;;;803.28;728.63;;;;;;;;;;4963020;28;20034;-92
2023/10/26 13:11:19;;;;;;;806.58;734.42;;;;;;;;;;4959467;28;20043;-94
2023/10/26 13:14:01;;;;;;;821.20;749.58;;;;;;;;;;4967939;28;20034;-96
2023/10/26 13:16:30;;;;;;;856.03;774.53;;;;;;;;;;4960060;29;20070;-96
2023/10/26 13:19:03;;;;;;;812.38;739.65;;;;;;;;;;4961374;28;20058;-93
2023/10/26 13:53:16;;;;;;;831.95;754.85;;;;;;;;;;4977996;28;20039;-94
2023/10/26 13:55:43;;;;;;;783.05;712.70;;;;;;;;;;4963127;28;20055;-93
2023/10/26 13:58:09;;;;;;;772.47;702.75;;;;;;;;;;4961270;28;20034;-93
2023/10/26 14:00:50;;;;;;;783.22;713.47;;;;;;;;;;4962115;28;20061;-95
2023/10/26 14:06:12;;;;;;;778.17;709.63;;;;;;;;;;4986421;28;20089;-96
2023/10/26 14:16:26;;;;;;;787.08;717.38;;;;;;;;;;5435340;23;20062;-96
2023/10/26 14:18:52;;;;;;;800.38;728.17;;;;;;;;;;5004193;28;20032;-92
2023/10/26 14:21:31;;;;;;;819.50;743.90;;;;;;;;;;5005596;28;20026;-95
2023/10/26 14:24:01;;;;;;;807.45;733.65;;;;;;;;;;5007522;28;20498;-96
2023/10/26 14:26:30;;;;;;;822.13;745.90;;;;;;;;;;5008516;28;20038;-95
2023/10/26 14:28:56;;;;;;;854.30;774.05;;;;;;;;;;4987042;28;20084;-94
2023/10/26 14:31:28;;;;;;;829.70;749.72;;;;;;;;;;4989357;28;20471;-94
2023/10/26 14:33:56;;;;;;;893.13;805.17;;;;;;;;;;5013523;28;20110;-94
2023/10/26 14:36:25;;;;;;;867.75;783.95;;;;;;;;;;5005088;28;20030;-91
2023/10/26 14:38:51;;;;;;;817.00;742.47;;;;;;;;;;5006642;28;20026;-93
2023/10/26 14:41:20;;;;;;;837.97;760.85;;;;;;;;;;5004084;28;20117;-92
2023/10/26 14:43:53;;;;;;;793.10;720.65;;;;;;;;;;5003926;28;20025;-93
2023/10/26 14:46:26;;;;;;;848.10;768.15;;;;;;;;;;5007963;28;20033;-92
2023/10/26 14:48:55;;;;;;;821.20;744.45;;;;;;;;;;5003311;28;20082;-92
2023/10/26 14:51:21;;;;;;;798.65;727.33;;;;;;;;;;4993739;28;20030;-91
2023/10/26 14:53:48;;;;;;;800.90;729.80;;;;;;;;;;4993183;28;20550;-95
2023/10/26 14:56:27;;;;;;;778.10;709.67;;;;;;;;;;4991657;28;20077;-93
2023/10/26 14:59:01;;;;;;;806.65;732.33;;;;;;;;;;5007303;28;20025;-96
2023/10/26 15:01:28;;;;;;;855.47;776.08;;;;;;;;;;4986843;28;20046;-92
2023/10/26 15:04:07;;;;;;;;;;;;;;;;;;;;;
2023/10/26 15:06:47;;;;;;;822.22;746.03;;;;;;;;;;5024193;28;20049;-93
2023/10/26 15:09:16;;;;;;;812.75;737.25;;;;;;;;;;5009989;28;20006;-95
2023/10/26 15:12:10;;;;;;;794.22;720.67;;;;;;;;;;5008168;28;20026;-96
2023/10/26 15:14:38;;;;;;;864.45;780.70;;;;;;;;;;4998676;28;20073;-96
2023/10/26 15:17:37;;;;;;;870.22;786.90;;;;;;;;;;5005669;28;20065;-96
2023/10/26 15:24:03;;;;;;;844.42;766.88;;;;;;;;;;5607356;23;20177;-94
2023/10/26 15:26:29;;;;;;;862.25;781.10;;;;;;;;;;4980950;28;20057;-95
2023/10/26 15:29:00;;;;;;;842.45;761.20;;;;;;;;;;4986234;28;20030;-96
2023/10/26 15:31:32;;;;;;;819.95;741.13;;;;;;;;;;4987775;28;20031;-93
2023/10/26 15:34:03;;;;;;;842.35;760.72;;;;;;;;;;4972279;28;20038;-95
2023/10/26 15:39:19;;;;;;;869.83;785.78;;;;;;;;;;5008540;28;20057;-94
2023/10/26 15:47:24;;;;;;;879.47;790.75;;;;;;;;;;5352733;23;20063;-89
2023/10/26 15:49:50;;;;;;;838.10;757.33;;;;;;;;;;4998722;28;20038;-91
2023/10/26 15:52:28;;;;;;;846.72;766.58;;;;;;;;;;4987932;28;20034;-91
2023/10/26 15:55:03;;;;;;;819.45;741.53;;;;;;;;;;4976966;28;20079;-90
2023/10/26 15:58:06;;;;;;;889.50;799.38;;;;;;;;;;4960774;28;20027;-91
2023/10/26 16:04:06;;;;;;;825.97;744.78;;;;;;;;;;4918277;29;20095;-88
2023/10/26 16:07:09;;;;;;;813.03;736.35;;;;;;;;;;4906329;29;20036;-92
2023/10/26 16:09:44;;;;;;;816.72;734.65;;;;;;;;;;4919148;29;20498;-92
2023/10/26 16:12:38;;;;;;;817.55;736.75;;;;;;;;;;4925533;29;20024;-92
2023/10/26 16:18:32;;;;;;;873.73;783.57;;;;;;;;;;4919455;29;20585;-93
2023/10/26 16:21:09;;;;;;;889.78;797.33;;;;;;;;;;4902791;29;20303;-91
2023/10/26 16:23:47;;;;;;;841.95;758.42;;;;;;;;;;4919056;29;20519;-91
2023/10/26 16:26:28;;;;;;;860.55;771.28;;;;;;;;;;4934208;29;20046;-93
2023/10/26 16:28:58;;;;;;;860.63;772.72;;;;;;;;;;4965674;28;20050;-92
2023/10/26 16:31:24;;;;;;;847.97;764.50;;;;;;;;;;4974626;28;20125;-92
2023/10/26 16:34:00;;;;;;;876.90;783.78;;;;;;;;;;4980417;28;20033;-92
2023/10/26 16:39:35;;;;;;;841.50;755.17;;;;;;;;;;4999114;28;20077;-91
2023/10/26 16:42:02;;;;;;;903.78;806.10;;;;;;;;;;4982005;28;20069;-93
2023/10/26 16:44:34;;;;;;;822.10;741.15;;;;;;;;;;4969290;28;20122;-91
2023/10/26 16:47:16;;;;;;;845.40;757.10;;;;;;;;;;4960875;28;20066;-91
2023/10/26 16:50:08;;;;;;;847.45;760.08;;;;;;;;;;4959029;28;20022;-92
2023/10/26 16:55:50;;;;;;;859.13;769.30;;;;;;;;;;4939994;29;20099;-92
2023/10/26 16:58:16;;;;;;;863.00;774.33;;;;;;;;;;4937998;29;20122;-93
2023/10/26 17:00:42;;;;;;;846.85;760.25;;;;;;;;;;4937916;29;20042;-91
2023/10/26 17:03:11;;;;;;;810.65;729.42;;;;;;;;;;4929899;28;20556;-91
2023/10/26 17:06:03;;;;;;;841.65;754.17;;;;;;;;;;4979050;28;20077;-90